Weather History for Linden, NJ

Change the Weather History Date:

Wednesday, January 8, 2014

  Actual Average (KEWR) Record (KEWR)
Temperature  
Mean Temperature 16 °F 32 °F  
Max Temperature 23 °F 39 °F 70 °F (1998)
Min Temperature 10 °F 25 °F 3 °F (1968)
Degree Days  
Heating Degree Days 48 33  
Month to date heating degree days 263  
Since 1 July heating degree days 2013  
Cooling Degree Days 0 0  
Month to date cooling degree days 0  
Year to date cooling degree days 0  
Moisture  
Dew Point -1 °F    
Average Humidity 45    
Maximum Humidity 55    
Minimum Humidity 37    
Precipitation  
Precipitation 0.00 in 0.11 in 1.26 in (2007)
Month to date precipitation 0.94  
Year to date precipitation 0.94  
Snow  
Snow 0.00 in 0.20 in 9.80 in (1996)
Month to date snowfall 1.9  
Since 1 July snowfall 7.7  
Snow Depth -    
Sea Level Pressure  
Sea Level Pressure 30.53 in    
Wind  
Wind Speed 10 mph (WNW)    
Max Wind Speed 16 mph    
Max Gust Speed 18 mph    
Visibility 10 miles    
Events Snow    
T = Trace of Precipitation, MM = Missing Value Source: NWS Daily Summary

Daily Weather History Graph

Daily Weather History Graph

Search for Another Location

Airport:

Trip Planner

Search our weather history database for the weather conditions in past years. The results will help you decide how hot, cold, wet, or windy it might be!

Date:

Astronomy

Jan. 08, 2014 Rise Set
Actual Time 7:20 AM EST 4:47 PM EST
Civil Twilight 6:50 AM EST 5:17 PM EST
Nautical Twilight 6:16 AM EST 5:51 PM EST
Astronomical Twilight 5:43 AM EST 6:24 PM EST
Moon 11:39 AM EST (1/8) 12:22 AM EST (1/8)
Length of Visible Light 10h 27m
Length of Day
9h 26m
First Quarter, 56% of the Moon is Illuminated
Jan 8
First Quarter
Jan 15
Full
Jan 24
Last Quarter
Jan 30
New
Feb 6
First Quarter

Hourly Weather History & Observations

Time (EST) Temp. Windchill Dew Point Humidity Pressure Visibility Wind Dir Wind Speed Gust Speed Precip Events Conditions
12:15 AM 10.4 °F -5.4 °F -6.5 °F 47% 30.44 in 10.0 mi WNW 13.8 mph 18.4 mph N/A   Clear
12:35 AM 10.4 °F -4.1 °F -6.5 °F 47% 30.44 in 10.0 mi West 11.5 mph 17.3 mph N/A   Clear
12:55 AM 10.4 °F -4.1 °F -6.0 °F 48% 30.45 in 10.0 mi West 11.5 mph 17.3 mph N/A   Clear
1:15 AM 10.4 °F -6.6 °F -6.0 °F 48% 30.45 in 10.0 mi WNW 16.1 mph - N/A   Clear
1:35 AM 10.4 °F -4.8 °F -6.0 °F 48% 30.46 in 10.0 mi WNW 12.7 mph - N/A   Clear
1:55 AM 10.2 °F -3.5 °F -5.3 °F 50% 30.46 in 10.0 mi WNW 10.4 mph 17.3 mph N/A   Clear
2:35 AM 10.2 °F -5.7 °F -5.4 °F 49% 30.48 in 10.0 mi WNW 13.8 mph 18.4 mph N/A   Clear
2:55 AM 10.4 °F -2.4 °F -5.4 °F 49% 30.49 in 10.0 mi West 9.2 mph 16.1 mph N/A   Clear
3:15 AM 10.4 °F -3.3 °F -5.4 °F 49% 30.50 in 10.0 mi West 10.4 mph - N/A   Clear
3:35 AM 10.2 °F -0.6 °F -5.1 °F 50% 30.49 in 10.0 mi West 6.9 mph - N/A   Clear
3:55 AM 10.2 °F -2.7 °F -4.7 °F 51% 30.49 in 10.0 mi WNW 9.2 mph - N/A   Clear
4:15 AM 10.2 °F -2.7 °F -4.5 °F 51% 30.50 in 10.0 mi WNW 9.2 mph - N/A   Clear
4:35 AM 10.2 °F -2.7 °F -4.5 °F 51% 30.50 in 10.0 mi West 9.2 mph - N/A   Clear
4:55 AM 10.2 °F -2.7 °F -4.2 °F 52% 30.51 in 10.0 mi West 9.2 mph - N/A   Clear
5:15 AM 10.0 °F -3.7 °F -4.2 °F 53% 30.50 in 10.0 mi WNW 10.4 mph - N/A   Clear
5:35 AM 10.0 °F -4.5 °F -4.0 °F 53% 30.50 in 10.0 mi WNW 11.5 mph - N/A   Clear
5:55 AM 10.0 °F -3.7 °F -4.0 °F 53% 30.50 in 10.0 mi WNW 10.4 mph - N/A   Clear
6:15 AM 10.0 °F -4.5 °F -3.6 °F 54% 30.50 in 10.0 mi NW 11.5 mph - N/A   Clear
6:35 AM 10.0 °F -3.7 °F -3.5 °F 55% 30.51 in 10.0 mi WNW 10.4 mph - N/A   Clear
6:55 AM 10.0 °F -3.7 °F -3.6 °F 54% 30.52 in 10.0 mi WNW 10.4 mph - N/A   Clear
7:15 AM 10.0 °F -2.9 °F -3.5 °F 55% 30.53 in 10.0 mi WNW 9.2 mph - N/A   Clear
7:35 AM 10.4 °F -1.5 °F -3.5 °F 54% 30.56 in 10.0 mi West 8.1 mph - N/A   Clear
7:55 AM 10.4 °F -3.3 °F -3.1 °F 55% 30.56 in 10.0 mi West 10.4 mph - N/A   Clear
8:15 AM 11.1 °F -0.6 °F -2.2 °F 55% 30.57 in 10.0 mi WNW 8.1 mph - N/A   Clear
8:35 AM 11.8 °F -2.3 °F -2.4 °F 53% 30.58 in 10.0 mi WNW 11.5 mph - N/A   Clear
8:55 AM 12.2 °F -0.2 °F -2.6 °F 52% 30.59 in 10.0 mi West 9.2 mph - N/A   Clear
9:15 AM 13.1 °F -0.7 °F -2.2 °F 51% 30.59 in 10.0 mi WNW 11.5 mph - N/A   Clear
9:35 AM 14.0 °F 2.9 °F -2.0 °F 49% 30.60 in 10.0 mi West 8.1 mph - N/A   Clear
9:55 AM 14.9 °F 3.1 °F -1.8 °F 48% 30.60 in 10.0 mi WNW 9.2 mph - N/A   Clear
10:15 AM 16.0 °F 5.3 °F -1.7 °F 46% 30.60 in 10.0 mi WNW 8.1 mph - N/A   Clear
10:35 AM 16.3 °F 4.9 °F -1.8 °F 45% 30.59 in 10.0 mi West 9.2 mph 16.1 mph N/A   Clear
10:55 AM 16.9 °F 5.5 °F -2.0 °F 43% 30.58 in 10.0 mi West 9.2 mph - N/A   Clear
11:15 AM 17.1 °F 5.0 °F -1.5 °F 44% 30.57 in 10.0 mi WNW 10.4 mph - N/A   Scattered Clouds
11:35 AM 18.1 °F 7.1 °F -1.5 °F 42% 30.55 in 10.0 mi WNW 9.2 mph - N/A   Overcast
11:55 AM 19.8 °F 8.3 °F -0.0 °F 42% 30.54 in 10.0 mi NW 10.4 mph - N/A Snow Light Snow
12:15 PM 18.7 °F 7.8 °F -0.8 °F 43% 30.53 in 10.0 mi NW 9.2 mph - N/A   Mostly Cloudy
12:35 PM 20.3 °F 9.8 °F -0.6 °F 40% 30.52 in 10.0 mi WNW 9.2 mph - N/A   Clear
12:55 PM 19.6 °F 8.9 °F -0.6 °F 41% 30.51 in 10.0 mi NW 9.2 mph - N/A   Mostly Cloudy
1:15 PM 20.3 °F 9.8 °F -0.6 °F 40% 30.51 in 10.0 mi West 9.2 mph - N/A   Overcast
1:35 PM 21.6 °F 9.9 °F -0.6 °F 38% 30.51 in 10.0 mi West 11.5 mph 18.4 mph N/A   Overcast
1:55 PM 22.8 °F 9.4 °F 0.7 °F 38% 30.52 in 10.0 mi WNW 16.1 mph - N/A   Overcast
2:15 PM 21.7 °F 12.3 °F 0.3 °F 39% 30.51 in 10.0 mi West 8.1 mph - N/A   Overcast
2:35 PM 21.9 °F 11.0 °F 0.1 °F 39% 30.51 in 10.0 mi West 10.4 mph - N/A   Scattered Clouds
2:55 PM 22.5 °F 11.1 °F 0.3 °F 38% 30.51 in 10.0 mi WNW 11.5 mph - N/A   Clear
3:15 PM 22.5 °F 13.2 °F -0.6 °F 37% 30.51 in 10.0 mi West 8.1 mph - N/A   Clear
3:35 PM 22.6 °F 11.9 °F -0.4 °F 37% 30.52 in 10.0 mi West 10.4 mph 18.4 mph N/A   Clear
3:55 PM 22.5 °F 12.4 °F -0.6 °F 37% 30.52 in 10.0 mi West 9.2 mph - N/A   Clear
4:15 PM 22.1 °F 10.6 °F -0.4 °F 38% 30.52 in 10.0 mi WNW 11.5 mph - N/A   Clear
4:35 PM 22.1 °F 11.3 °F -0.2 °F 38% 30.52 in 10.0 mi WNW 10.4 mph - N/A   Clear
4:55 PM 21.7 °F 12.3 °F -0.0 °F 39% 30.52 in 10.0 mi WNW 8.1 mph - N/A   Clear
5:15 PM 21.9 °F 14.5 °F 0.1 °F 39% 30.52 in 10.0 mi WNW 5.8 mph - N/A   Clear
5:35 PM 21.6 °F 13.0 °F 0.3 °F 40% 30.52 in 10.0 mi WNW 6.9 mph - N/A   Clear
5:55 PM 21.7 °F 15.5 °F 0.3 °F 39% 30.53 in 10.0 mi WNW 4.6 mph - N/A   Clear
6:15 PM 21.4 °F 13.8 °F 0.7 °F 41% 30.54 in 10.0 mi WNW 5.8 mph - N/A   Clear
6:35 PM 21.2 °F 13.6 °F 2.1 °F 44% 30.54 in 10.0 mi WNW 5.8 mph - N/A   Clear
6:55 PM 21.7 °F 13.2 °F 2.5 °F 43% 30.55 in 10.0 mi WNW 6.9 mph - N/A   Clear
7:15 PM 21.7 °F 13.2 °F 1.8 °F 42% 30.55 in 10.0 mi WNW 6.9 mph - N/A   Clear
7:35 PM 21.6 °F 15.3 °F 2.8 °F 44% 30.55 in 10.0 mi WNW 4.6 mph - N/A   Clear
7:55 PM 21.6 °F 14.0 °F 2.1 °F 43% 30.55 in 10.0 mi WNW 5.8 mph - N/A   Clear
8:15 PM 21.9 °F - 2.1 °F 42% 30.55 in 10.0 mi Calm Calm - N/A   Clear
8:35 PM 21.7 °F 15.5 °F 1.4 °F 41% 30.55 in 10.0 mi West 4.6 mph - N/A   Clear
8:55 PM 21.7 °F 15.5 °F 1.9 °F 42% 30.56 in 10.0 mi West 4.6 mph - N/A   Scattered Clouds
9:15 PM 22.1 °F 15.9 °F 2.3 °F 42% 30.56 in 10.0 mi West 4.6 mph - N/A   Overcast
9:35 PM 21.9 °F 14.5 °F 2.1 °F 42% 30.56 in 10.0 mi West 5.8 mph - N/A   Overcast
9:55 PM 22.1 °F 15.9 °F 1.9 °F 42% 30.56 in 10.0 mi West 4.6 mph - N/A   Overcast
10:15 PM 22.3 °F 14.9 °F 1.6 °F 41% 30.55 in 10.0 mi West 5.8 mph - N/A   Overcast
10:35 PM 22.8 °F 13.6 °F 1.6 °F 40% 30.55 in 10.0 mi WNW 8.1 mph - N/A   Overcast
10:55 PM 23.0 °F 15.8 °F 1.4 °F 39% 30.55 in 10.0 mi West 5.8 mph - N/A   Overcast
11:15 PM 23.4 °F 15.2 °F 2.7 °F 41% 30.55 in 10.0 mi WNW 6.9 mph - N/A   Overcast
11:35 PM 23.5 °F 16.4 °F 2.1 °F 40% 30.55 in 10.0 mi West 5.8 mph - N/A   Overcast
11:55 PM 23.7 °F 19.3 °F 2.1 °F 39% 30.54 in 10.0 mi West 3.5 mph - N/A   Overcast